createdAt,value
2017-10-26T00:00:28.497Z,0.00
2017-10-26T00:02:21.945Z,0.00
2017-10-26T00:03:21.923Z,0.00
2017-10-26T00:05:15.312Z,0.00
2017-10-26T00:06:15.433Z,0.00
2017-10-26T00:08:09.829Z,0.00
2017-10-26T00:09:09.802Z,0.00
2017-10-26T00:11:03.104Z,0.00
2017-10-26T00:12:03.102Z,0.00
2017-10-26T00:13:56.515Z,0.00
2017-10-26T00:14:56.512Z,0.00
2017-10-26T00:16:49.914Z,0.00
2017-10-26T00:17:49.914Z,0.00
2017-10-26T00:19:43.331Z,0.00
2017-10-26T00:20:43.272Z,0.00
2017-10-26T00:22:36.722Z,0.00
2017-10-26T00:23:36.686Z,0.00
2017-10-26T00:25:30.078Z,0.00
2017-10-26T00:26:30.080Z,0.00
2017-10-26T00:28:23.513Z,0.00
2017-10-26T00:30:36.917Z,0.00
2017-10-26T00:31:36.868Z,0.00
2017-10-26T00:33:30.330Z,0.00
2017-10-26T00:34:30.334Z,0.00
2017-10-26T00:36:23.716Z,0.00
2017-10-26T00:37:23.698Z,0.00
2017-10-26T00:39:17.107Z,0.00
2017-10-26T00:40:17.144Z,0.00
2017-10-26T00:42:11.493Z,0.00
2017-10-26T00:43:11.491Z,0.00
2017-10-26T00:45:05.925Z,0.00
2017-10-26T00:46:05.894Z,0.00
2017-10-26T00:47:59.291Z,0.00
2017-10-26T00:48:59.299Z,0.00
2017-10-26T00:50:52.737Z,0.00
2017-10-26T00:51:52.726Z,0.00
2017-10-26T00:53:46.084Z,0.00
2017-10-26T00:54:46.157Z,0.00
2017-10-26T00:56:39.501Z,0.00
2017-10-26T00:57:39.584Z,0.00
2017-10-26T00:59:32.926Z,0.00
2017-10-26T01:00:32.950Z,0.00
2017-10-26T01:02:26.340Z,0.00
2017-10-26T01:03:26.336Z,0.00
2017-10-26T01:05:19.726Z,0.00
2017-10-26T01:06:19.727Z,0.00
2017-10-26T01:08:13.174Z,0.00
2017-10-26T01:09:13.217Z,0.00
2017-10-26T01:11:07.496Z,0.00
2017-10-26T01:12:07.540Z,0.00
2017-10-26T01:14:00.967Z,0.00
2017-10-26T01:15:00.923Z,0.00
2017-10-26T01:16:54.357Z,0.00
2017-10-26T01:17:54.321Z,0.00
2017-10-26T01:19:47.758Z,0.00
2017-10-26T01:20:47.723Z,0.00
2017-10-26T01:22:41.122Z,0.00
2017-10-26T01:23:41.115Z,0.00
2017-10-26T01:25:34.508Z,0.00
2017-10-26T01:26:34.544Z,0.00
2017-10-26T01:28:27.919Z,0.00
2017-10-26T01:29:27.949Z,0.00
2017-10-26T01:31:21.307Z,0.00
2017-10-26T01:32:21.392Z,0.00
2017-10-26T01:34:14.708Z,0.00
2017-10-26T01:35:14.741Z,0.00
2017-10-26T01:37:08.140Z,0.00
2017-10-26T01:38:08.136Z,0.00
2017-10-26T01:40:01.473Z,0.00
2017-10-26T01:41:01.483Z,0.00
2017-10-26T01:42:54.921Z,0.00
2017-10-26T01:43:54.864Z,0.00
2017-10-26T01:45:49.282Z,0.00
2017-10-26T01:46:49.327Z,0.00
2017-10-26T01:48:42.717Z,0.00
2017-10-26T01:49:42.751Z,0.00
2017-10-26T01:51:36.111Z,0.00
2017-10-26T01:52:36.091Z,0.00
2017-10-26T01:54:29.472Z,0.00
2017-10-26T01:55:29.529Z,0.00
2017-10-26T01:57:22.951Z,0.00
2017-10-26T01:58:22.891Z,0.00
2017-10-26T02:00:16.305Z,0.00
2017-10-26T02:01:16.285Z,0.00
2017-10-26T02:03:09.704Z,0.00
2017-10-26T02:04:09.690Z,0.00
2017-10-26T02:06:03.111Z,0.00
2017-10-26T02:07:03.143Z,0.00
2017-10-26T02:08:56.501Z,0.00
2017-10-26T02:09:56.522Z,0.00
2017-10-26T02:11:49.881Z,0.00
2017-10-26T02:12:49.869Z,0.00
2017-10-26T02:14:43.244Z,0.00
2017-10-26T02:15:43.319Z,0.00
2017-10-26T02:17:36.657Z,0.00
2017-10-26T02:18:36.696Z,0.00
2017-10-26T02:20:30.080Z,0.00
2017-10-26T02:21:30.080Z,0.00
2017-10-26T02:23:24.507Z,0.00
2017-10-26T02:24:24.457Z,0.00
2017-10-26T02:26:17.871Z,0.00
2017-10-26T02:27:17.910Z,0.00
2017-10-26T02:29:12.300Z,0.00
2017-10-26T02:30:12.277Z,0.00
2017-10-26T02:32:05.663Z,0.00
2017-10-26T02:33:05.667Z,0.00
2017-10-26T02:34:59.069Z,0.00
2017-10-26T02:35:59.068Z,0.00
2017-10-26T02:37:52.446Z,0.00
2017-10-26T02:38:52.448Z,0.00
2017-10-26T02:40:45.857Z,0.00
2017-10-26T02:41:45.886Z,0.00
2017-10-26T02:43:39.229Z,0.00
2017-10-26T02:44:39.257Z,0.00
2017-10-26T02:46:32.617Z,0.00
2017-10-26T02:47:32.681Z,0.00
2017-10-26T02:49:26.017Z,0.00
2017-10-26T02:50:26.044Z,0.00
2017-10-26T02:52:19.441Z,0.00
2017-10-26T02:53:19.459Z,0.00
2017-10-26T02:55:12.823Z,0.00
2017-10-26T02:56:12.823Z,0.00
2017-10-26T02:58:07.228Z,0.00
2017-10-26T02:59:07.284Z,0.00
2017-10-26T03:01:00.609Z,0.00
2017-10-26T03:02:00.653Z,0.00
2017-10-26T03:03:54.044Z,0.00
2017-10-26T03:04:54.036Z,0.00
2017-10-26T03:06:55.001Z,0.00
2017-10-26T03:07:47.439Z,0.00
2017-10-26T03:09:40.822Z,0.00
2017-10-26T03:10:40.832Z,0.00
2017-10-26T03:12:34.283Z,0.00
2017-10-26T03:13:34.244Z,0.00
2017-10-26T03:15:28.573Z,0.00
2017-10-26T03:16:28.673Z,0.00
2017-10-26T03:18:22.028Z,0.00
2017-10-26T03:19:22.066Z,0.00
2017-10-26T03:21:15.370Z,0.00
2017-10-26T03:22:15.396Z,0.00
2017-10-26T03:24:09.800Z,0.00
2017-10-26T03:25:09.785Z,0.00
2017-10-26T03:27:03.219Z,0.00
2017-10-26T03:28:03.232Z,0.00
2017-10-26T03:29:56.590Z,0.00
2017-10-26T03:30:56.605Z,0.00
2017-10-26T03:32:49.996Z,0.00
2017-10-26T03:33:49.985Z,0.00
2017-10-26T03:35:43.439Z,0.00
2017-10-26T03:36:43.396Z,0.00
2017-10-26T03:38:36.744Z,0.00
2017-10-26T03:39:36.827Z,0.00
2017-10-26T03:41:31.172Z,0.00
2017-10-26T03:42:31.198Z,0.00
2017-10-26T03:44:24.601Z,0.00
2017-10-26T03:45:24.602Z,0.00
2017-10-26T03:47:17.985Z,0.00
2017-10-26T03:48:17.993Z,0.00
2017-10-26T03:50:11.351Z,0.00
2017-10-26T03:51:11.397Z,0.00
2017-10-26T03:53:04.785Z,0.00
2017-10-26T03:54:04.909Z,0.00
2017-10-26T03:55:58.158Z,0.00
2017-10-26T03:56:58.173Z,0.00
2017-10-26T03:58:51.588Z,0.00
2017-10-26T03:59:51.625Z,0.00
2017-10-26T04:01:44.924Z,0.00
2017-10-26T04:02:44.954Z,0.00
2017-10-26T04:04:38.366Z,0.00
2017-10-26T04:05:38.365Z,0.00
2017-10-26T04:07:31.753Z,0.00
2017-10-26T04:08:31.760Z,0.00
2017-10-26T04:10:25.164Z,0.00
2017-10-26T04:11:25.150Z,0.00
2017-10-26T04:13:18.572Z,0.00
2017-10-26T04:14:18.604Z,0.00
2017-10-26T04:16:11.986Z,0.00
2017-10-26T04:17:11.954Z,0.00
2017-10-26T04:19:06.355Z,0.00
2017-10-26T04:20:06.347Z,0.00
2017-10-26T04:21:59.732Z,0.00
2017-10-26T04:22:59.739Z,0.00
2017-10-26T04:24:53.155Z,0.00
2017-10-26T04:25:53.152Z,0.00
2017-10-26T04:27:46.518Z,0.00
2017-10-26T04:28:46.538Z,0.00
2017-10-26T04:30:39.956Z,0.00
2017-10-26T04:31:39.978Z,0.00
2017-10-26T04:33:33.376Z,0.00
2017-10-26T04:34:33.340Z,0.00
2017-10-26T04:36:26.748Z,0.00
2017-10-26T04:37:26.725Z,0.00
2017-10-26T04:39:20.184Z,0.00
2017-10-26T04:40:20.145Z,0.00
2017-10-26T04:42:13.559Z,0.00
2017-10-26T04:43:13.566Z,0.00
2017-10-26T04:45:07.996Z,0.00
2017-10-26T04:46:16.576Z,0.00
2017-10-26T04:48:01.348Z,0.00
2017-10-26T04:49:01.339Z,0.00
2017-10-26T04:50:54.809Z,0.00
2017-10-26T04:51:54.684Z,0.00
2017-10-26T04:53:49.145Z,0.00
2017-10-26T04:54:49.185Z,0.00
2017-10-26T04:56:42.589Z,0.00
2017-10-26T04:57:42.761Z,0.00
2017-10-26T04:59:35.893Z,0.00
2017-10-26T05:00:35.902Z,0.00
2017-10-26T05:02:29.311Z,0.00
2017-10-26T05:03:29.342Z,0.00
2017-10-26T05:05:22.653Z,0.00
2017-10-26T05:06:22.681Z,0.00
2017-10-26T05:08:16.097Z,0.00
2017-10-26T05:09:16.091Z,0.00
2017-10-26T05:11:10.468Z,0.00
2017-10-26T05:12:10.469Z,0.00
2017-10-26T05:14:03.842Z,0.00
2017-10-26T05:15:03.905Z,0.00
2017-10-26T05:16:57.225Z,0.00
2017-10-26T05:17:57.253Z,0.00
2017-10-26T05:19:50.642Z,0.00
2017-10-26T05:20:50.666Z,0.00
2017-10-26T05:22:44.055Z,0.00
2017-10-26T05:23:44.085Z,0.00
2017-10-26T05:25:37.426Z,0.00
2017-10-26T05:26:37.443Z,0.00
2017-10-26T05:28:30.848Z,0.00
2017-10-26T05:29:30.876Z,0.00
2017-10-26T05:31:24.240Z,0.00
2017-10-26T05:32:24.246Z,4.00
2017-10-26T05:34:17.641Z,0.00
2017-10-26T05:35:17.670Z,4.00
2017-10-26T05:37:11.063Z,4.00
2017-10-26T05:38:11.072Z,4.00
2017-10-26T05:40:04.532Z,8.00
2017-10-26T05:41:12.016Z,8.00
2017-10-26T05:43:05.490Z,12.00
2017-10-26T05:43:57.911Z,12.00
2017-10-26T05:45:51.251Z,20.00
2017-10-26T05:46:51.311Z,20.00
2017-10-26T05:48:45.695Z,28.00
2017-10-26T05:49:45.649Z,32.00
2017-10-26T05:51:39.102Z,36.00
2017-10-26T05:52:39.174Z,44.00
2017-10-26T05:54:32.467Z,52.00
2017-10-26T05:55:32.500Z,56.00
2017-10-26T05:57:26.833Z,60.00
2017-10-26T05:58:26.959Z,68.00
2017-10-26T06:00:20.292Z,76.00
2017-10-26T06:01:20.344Z,80.00
2017-10-26T06:03:21.274Z,96.00
2017-10-26T06:04:13.652Z,104.00
2017-10-26T06:06:07.067Z,116.00
2017-10-26T06:07:06.992Z,120.00
2017-10-26T06:09:01.460Z,136.00
2017-10-26T06:10:01.419Z,144.00
2017-10-26T06:11:55.878Z,168.00
2017-10-26T06:12:55.835Z,184.00
2017-10-26T06:14:49.260Z,208.00
2017-10-26T06:15:49.335Z,224.00
2017-10-26T06:17:42.599Z,260.00
2017-10-26T06:18:42.736Z,284.00
2017-10-26T06:20:36.027Z,324.00
2017-10-26T06:21:36.004Z,348.00
2017-10-26T06:23:29.418Z,392.00
2017-10-26T06:24:29.382Z,416.00
2017-10-26T06:26:22.804Z,464.00
2017-10-26T06:27:22.782Z,476.00
2017-10-26T06:29:16.221Z,500.00
2017-10-26T06:30:16.237Z,512.00
2017-10-26T06:32:09.561Z,536.00
2017-10-26T06:33:09.541Z,552.00
2017-10-26T06:35:02.970Z,580.00
2017-10-26T06:36:02.956Z,596.00
2017-10-26T06:37:56.323Z,644.00
2017-10-26T06:38:56.371Z,656.00
2017-10-26T06:40:49.755Z,688.00
2017-10-26T06:41:49.739Z,732.00
2017-10-26T06:43:43.122Z,772.00
2017-10-26T06:44:43.122Z,808.00
2017-10-26T06:46:36.549Z,840.00
2017-10-26T06:47:36.531Z,844.00
2017-10-26T06:49:29.957Z,900.00
2017-10-26T06:50:29.936Z,948.00
2017-10-26T06:52:23.353Z,1064.00
2017-10-26T06:53:23.340Z,1088.00
2017-10-26T06:55:16.757Z,1048.00
2017-10-26T06:56:16.721Z,1040.00
2017-10-26T06:58:10.135Z,988.00
2017-10-26T06:59:10.115Z,1004.00
2017-10-26T07:01:03.549Z,1036.00
2017-10-26T07:02:03.610Z,1036.00
2017-10-26T07:03:56.932Z,1024.00
2017-10-26T07:04:56.975Z,1020.00
2017-10-26T07:06:50.407Z,1016.00
2017-10-26T07:07:50.315Z,1012.00
2017-10-26T07:09:43.729Z,1044.00
2017-10-26T07:10:43.767Z,1052.00
2017-10-26T07:12:38.230Z,1044.00
2017-10-26T07:13:38.150Z,1056.00
2017-10-26T07:15:31.645Z,1144.00
2017-10-26T07:16:31.557Z,1164.00
2017-10-26T07:18:24.955Z,1192.00
2017-10-26T07:19:24.963Z,1220.00
2017-10-26T07:21:18.405Z,1332.00
2017-10-26T07:22:18.395Z,1368.00
2017-10-26T07:24:11.863Z,1464.00
2017-10-26T07:25:11.746Z,1504.00
2017-10-26T07:27:05.171Z,1508.00
2017-10-26T07:28:05.180Z,1612.00
2017-10-26T07:29:58.538Z,1684.00
2017-10-26T07:30:58.547Z,1648.00
2017-10-26T07:32:51.938Z,1784.00
2017-10-26T07:33:51.997Z,1960.00
2017-10-26T07:35:45.358Z,2024.00
2017-10-26T07:36:45.406Z,1912.00
2017-10-26T07:38:38.837Z,2148.00
2017-10-26T07:39:38.746Z,2360.00
2017-10-26T07:41:32.179Z,2440.00
2017-10-26T07:42:32.231Z,2316.00
2017-10-26T07:44:25.662Z,2024.00
2017-10-26T07:45:25.610Z,2092.00
2017-10-26T07:47:19.045Z,2020.00
2017-10-26T07:48:18.963Z,1904.00
2017-10-26T07:50:12.297Z,1728.00
2017-10-26T07:51:12.314Z,1748.00
2017-10-26T07:53:05.740Z,1408.00
2017-10-26T07:54:05.715Z,1408.00
2017-10-26T07:56:00.165Z,1264.00
2017-10-26T07:57:00.121Z,1252.00
2017-10-26T07:58:53.486Z,1596.00
2017-10-26T07:59:53.522Z,1664.00
2017-10-26T08:01:46.913Z,1876.00
2017-10-26T08:02:46.992Z,2184.00
2017-10-26T08:04:40.333Z,2748.00
2017-10-26T08:05:40.377Z,2816.00
2017-10-26T08:07:33.846Z,2940.00
2017-10-26T08:08:33.759Z,3244.00
2017-10-26T08:10:27.117Z,2984.00
2017-10-26T08:11:27.117Z,2600.00
2017-10-26T08:13:20.508Z,2744.00
2017-10-26T08:14:20.500Z,2464.00
2017-10-26T08:16:13.880Z,3336.00
2017-10-26T08:17:13.892Z,3380.00
2017-10-26T08:19:08.262Z,3368.00
2017-10-26T08:20:08.363Z,3204.00
2017-10-26T08:22:02.710Z,2696.00
2017-10-26T08:23:02.796Z,3600.00
2017-10-26T08:24:56.211Z,2416.00
2017-10-26T08:25:56.208Z,2580.00
2017-10-26T08:27:49.553Z,2252.00
2017-10-26T08:28:58.060Z,2796.00
2017-10-26T08:30:43.031Z,2788.00
2017-10-26T08:31:42.978Z,2672.00
2017-10-26T08:33:37.390Z,2728.00
2017-10-26T08:34:37.356Z,2912.00
2017-10-26T08:36:30.816Z,2552.00
2017-10-26T08:37:30.786Z,2260.00
2017-10-26T08:39:24.262Z,2304.00
2017-10-26T08:40:24.225Z,2340.00
2017-10-26T08:42:18.564Z,2520.00
2017-10-26T08:43:18.570Z,2460.00
2017-10-26T08:45:11.989Z,2236.00
2017-10-26T08:46:11.995Z,2024.00
2017-10-26T08:48:05.320Z,1940.00
2017-10-26T08:49:05.312Z,2136.00
2017-10-26T08:50:58.715Z,2132.00
2017-10-26T08:51:58.743Z,2100.00
2017-10-26T08:53:52.135Z,2280.00
2017-10-26T08:54:52.168Z,2340.00
2017-10-26T08:56:45.538Z,2416.00
2017-10-26T08:57:45.553Z,2476.00
2017-10-26T08:59:38.938Z,2536.00
2017-10-26T09:00:38.931Z,2592.00
2017-10-26T09:02:32.390Z,2628.00
2017-10-26T09:03:32.346Z,2700.00
2017-10-26T09:05:25.728Z,3532.00
2017-10-26T09:06:25.733Z,16576.00
2017-10-26T09:08:19.153Z,27392.00
2017-10-26T09:09:19.137Z,27648.00
2017-10-26T09:11:12.564Z,30272.00
2017-10-26T09:12:12.554Z,31936.00
2017-10-26T09:14:05.930Z,19360.00
2017-10-26T09:15:05.943Z,6208.00
2017-10-26T09:16:59.313Z,2748.00
2017-10-26T09:17:59.302Z,2684.00
2017-10-26T09:19:52.714Z,2772.00
2017-10-26T09:20:52.855Z,2776.00
2017-10-26T09:22:46.157Z,2668.00
2017-10-26T09:23:46.238Z,2504.00
2017-10-26T09:25:39.580Z,2596.00
2017-10-26T09:26:39.553Z,2556.00
2017-10-26T09:28:32.968Z,2540.00
2017-10-26T09:29:32.989Z,2220.00
2017-10-26T09:31:27.387Z,2596.00
2017-10-26T09:32:27.431Z,2660.00
2017-10-26T09:34:20.805Z,2724.00
2017-10-26T09:35:20.804Z,2728.00
2017-10-26T09:37:14.191Z,2712.00
2017-10-26T09:38:14.256Z,3160.00
2017-10-26T09:40:15.172Z,9320.00
2017-10-26T09:41:07.547Z,11260.00
2017-10-26T09:43:00.956Z,14496.00
2017-10-26T09:44:00.964Z,15456.00
2017-10-26T09:45:54.363Z,16704.00
2017-10-26T09:46:54.341Z,16832.00
2017-10-26T09:48:47.766Z,17056.00
2017-10-26T09:49:47.753Z,17600.00
2017-10-26T09:51:41.170Z,18368.00
2017-10-26T09:52:41.192Z,17248.00
2017-10-26T09:54:34.565Z,18752.00
2017-10-26T09:55:34.568Z,18752.00
2017-10-26T09:57:27.995Z,20096.00
2017-10-26T09:58:28.000Z,21024.00
2017-10-26T10:00:21.379Z,22016.00
2017-10-26T10:01:21.392Z,18304.00
2017-10-26T10:03:14.809Z,22432.00
2017-10-26T10:04:14.802Z,22720.00
2017-10-26T10:06:08.202Z,23488.00
2017-10-26T10:07:08.214Z,23872.00
2017-10-26T10:09:01.632Z,24416.00
2017-10-26T10:10:01.626Z,24704.00
2017-10-26T10:11:55.079Z,25504.00
2017-10-26T10:12:55.058Z,26048.00
2017-10-26T10:14:48.446Z,25760.00
2017-10-26T10:15:48.462Z,26336.00
2017-10-26T10:17:41.889Z,27264.00
2017-10-26T10:18:41.887Z,27552.00
2017-10-26T10:20:35.288Z,27968.00
2017-10-26T10:21:35.307Z,28000.00
2017-10-26T10:23:28.746Z,28416.00
2017-10-26T10:24:28.727Z,23936.00
2017-10-26T10:26:22.135Z,28704.00
2017-10-26T10:27:22.160Z,29632.00
2017-10-26T10:29:15.579Z,32640.00
2017-10-26T10:30:15.578Z,33792.00
2017-10-26T10:32:08.995Z,32640.00
2017-10-26T10:33:08.995Z,34528.00
2017-10-26T10:35:02.425Z,34432.00
2017-10-26T10:36:02.423Z,36832.00
2017-10-26T10:37:55.833Z,48224.00
2017-10-26T10:38:55.862Z,52416.00
2017-10-26T10:40:49.285Z,57152.00
2017-10-26T10:41:49.303Z,56512.00
2017-10-26T10:43:42.748Z,58304.00
2017-10-26T10:44:42.753Z,61792.00
2017-10-26T10:46:36.143Z,52576.00
2017-10-26T10:47:36.157Z,41920.00
2017-10-26T10:49:29.617Z,38240.00
2017-10-26T10:50:29.598Z,38400.00
2017-10-26T10:52:23.074Z,38176.00
2017-10-26T10:53:23.043Z,38944.00
2017-10-26T10:55:16.430Z,39552.00
2017-10-26T10:56:16.450Z,43392.00
2017-10-26T10:58:09.849Z,48160.00
2017-10-26T10:59:09.863Z,47136.00
2017-10-26T11:01:03.327Z,52448.00
2017-10-26T11:02:03.316Z,58784.00
2017-10-26T11:03:56.718Z,52800.00
2017-10-26T11:04:56.737Z,49696.00
2017-10-26T11:06:50.172Z,40960.00
2017-10-26T11:07:50.171Z,39104.00
2017-10-26T11:09:43.598Z,37632.00
2017-10-26T11:10:43.615Z,41536.00
2017-10-26T11:12:37.035Z,33920.00
2017-10-26T11:13:37.034Z,30496.00
2017-10-26T11:15:30.450Z,30592.00
2017-10-26T11:16:30.469Z,29216.00
2017-10-26T11:18:23.915Z,27328.00
2017-10-26T11:19:23.927Z,27904.00
2017-10-26T11:21:17.315Z,26816.00
2017-10-26T11:22:17.344Z,26560.00
2017-10-26T11:24:10.765Z,24992.00
2017-10-26T11:25:10.772Z,22944.00
2017-10-26T11:27:04.200Z,19520.00
2017-10-26T11:28:04.193Z,21056.00
2017-10-26T11:29:57.624Z,15200.00
2017-10-26T11:30:57.634Z,13252.00
2017-10-26T11:32:51.086Z,16512.00
2017-10-26T11:33:51.052Z,17472.00
2017-10-26T11:35:44.480Z,17728.00
2017-10-26T11:36:44.482Z,18368.00
2017-10-26T11:38:37.910Z,19552.00
2017-10-26T11:39:37.895Z,20448.00
2017-10-26T11:41:31.306Z,19264.00
2017-10-26T11:42:31.320Z,19808.00
2017-10-26T11:44:24.758Z,18624.00
2017-10-26T11:45:24.745Z,18144.00
2017-10-26T11:47:18.149Z,18080.00
2017-10-26T11:48:18.167Z,17216.00
2017-10-26T11:50:11.598Z,14848.00
2017-10-26T11:51:11.595Z,14368.00
2017-10-26T11:53:05.004Z,14624.00
2017-10-26T11:54:05.012Z,14496.00
2017-10-26T11:55:58.436Z,15904.00
2017-10-26T11:56:58.433Z,19488.00
2017-10-26T11:58:51.846Z,17056.00
2017-10-26T11:59:51.866Z,15648.00
2017-10-26T12:01:45.283Z,15264.00
2017-10-26T12:02:45.273Z,15488.00
2017-10-26T12:04:38.684Z,15680.00
2017-10-26T12:05:38.707Z,16864.00
2017-10-26T12:07:32.134Z,17952.00
2017-10-26T12:08:32.117Z,17696.00
2017-10-26T12:10:25.540Z,16736.00
2017-10-26T12:11:25.546Z,16864.00
2017-10-26T12:13:18.975Z,15584.00
2017-10-26T12:14:18.970Z,15776.00
2017-10-26T12:16:12.403Z,16224.00
2017-10-26T12:17:12.381Z,15936.00
2017-10-26T12:19:05.799Z,14304.00
2017-10-26T12:20:05.809Z,15008.00
2017-10-26T12:21:59.234Z,15488.00
2017-10-26T12:22:59.221Z,17056.00
2017-10-26T12:24:52.640Z,14092.00
2017-10-26T12:25:52.639Z,13740.00
2017-10-26T12:27:46.063Z,14476.00
2017-10-26T12:28:46.074Z,14244.00
2017-10-26T12:30:39.703Z,13552.00
2017-10-26T12:31:47.123Z,12960.00
2017-10-26T12:33:32.956Z,11488.00
2017-10-26T12:34:32.948Z,11136.00
2017-10-26T12:36:26.317Z,10780.00
2017-10-26T12:37:26.347Z,10704.00
2017-10-26T12:39:19.752Z,10192.00
2017-10-26T12:40:19.781Z,9980.00
2017-10-26T12:42:13.187Z,9660.00
2017-10-26T12:43:13.201Z,9236.00
2017-10-26T12:45:06.638Z,8796.00
2017-10-26T12:46:06.687Z,8652.00
2017-10-26T12:48:00.069Z,8188.00
2017-10-26T12:49:00.048Z,8268.00
2017-10-26T12:50:53.489Z,9072.00
2017-10-26T12:51:53.486Z,9388.00
2017-10-26T12:53:46.939Z,8552.00
2017-10-26T12:54:46.915Z,8820.00
2017-10-26T12:56:40.335Z,7952.00
2017-10-26T12:57:40.345Z,8968.00
2017-10-26T12:59:33.827Z,8556.00
2017-10-26T13:00:33.778Z,8452.00
2017-10-26T13:02:27.248Z,8700.00
2017-10-26T13:03:27.208Z,8820.00
2017-10-26T13:05:20.580Z,8560.00
2017-10-26T13:06:20.641Z,8576.00
2017-10-26T13:08:14.030Z,8688.00
2017-10-26T13:09:14.041Z,8812.00
2017-10-26T13:11:07.460Z,9000.00
2017-10-26T13:12:07.472Z,8952.00
2017-10-26T13:14:00.886Z,9360.00
2017-10-26T13:15:00.959Z,9472.00
2017-10-26T13:16:54.362Z,9376.00
2017-10-26T13:17:54.409Z,9380.00
2017-10-26T13:19:47.894Z,8996.00
2017-10-26T13:20:47.867Z,8660.00
2017-10-26T13:22:41.257Z,8132.00
2017-10-26T13:23:49.288Z,7872.00
2017-10-26T13:25:35.756Z,7704.00
2017-10-26T13:26:35.693Z,7248.00
2017-10-26T13:28:29.456Z,6568.00
2017-10-26T13:29:29.213Z,6948.00
2017-10-26T13:31:22.574Z,6396.00
2017-10-26T13:32:22.792Z,5948.00
2017-10-26T13:34:16.968Z,5444.00
2017-10-26T13:35:24.937Z,5280.00
2017-10-26T13:37:11.468Z,4848.00
2017-10-26T13:38:20.933Z,4636.00
2017-10-26T13:40:04.873Z,4364.00
2017-10-26T13:41:04.881Z,4148.00
2017-10-26T13:42:59.259Z,3856.00
2017-10-26T13:43:59.330Z,3848.00
2017-10-26T13:45:52.709Z,4084.00
2017-10-26T13:46:52.688Z,4172.00
2017-10-26T13:48:54.681Z,4064.00
2017-10-26T13:49:46.132Z,4104.00
2017-10-26T13:51:39.534Z,4188.00
2017-10-26T13:52:39.537Z,4176.00
2017-10-26T13:54:32.907Z,3924.00
2017-10-26T13:55:32.933Z,3764.00
2017-10-26T13:57:26.347Z,3444.00
2017-10-26T13:58:26.438Z,3376.00
2017-10-26T14:00:19.827Z,3176.00
2017-10-26T14:01:19.762Z,3272.00
2017-10-26T14:03:13.221Z,3404.00
2017-10-26T14:04:13.211Z,3540.00
2017-10-26T14:06:06.684Z,3748.00
2017-10-26T14:07:06.590Z,3780.00
2017-10-26T14:09:00.121Z,3832.00
2017-10-26T14:10:00.102Z,3936.00
2017-10-26T14:11:53.525Z,4260.00
2017-10-26T14:12:53.463Z,4444.00
2017-10-26T14:14:46.923Z,4548.00
2017-10-26T14:15:54.486Z,4496.00
2017-10-26T14:17:40.323Z,4668.00
2017-10-26T14:18:40.360Z,3768.00
2017-10-26T14:20:33.809Z,4036.00
2017-10-26T14:21:33.773Z,3824.00
2017-10-26T14:23:27.117Z,3544.00
2017-10-26T14:24:27.170Z,3088.00
2017-10-26T14:26:20.601Z,2268.00
2017-10-26T14:27:20.570Z,2272.00
2017-10-26T14:29:14.020Z,2344.00
2017-10-26T14:30:21.662Z,2396.00
2017-10-26T14:32:07.451Z,2504.00
2017-10-26T14:33:07.474Z,2524.00
2017-10-26T14:35:00.769Z,2764.00
2017-10-26T14:36:00.852Z,2592.00
2017-10-26T14:37:54.216Z,2420.00
2017-10-26T14:38:54.218Z,2368.00
2017-10-26T14:40:47.654Z,2192.00
2017-10-26T14:41:47.652Z,2048.00
2017-10-26T14:43:41.099Z,2080.00
2017-10-26T14:44:41.077Z,2168.00
2017-10-26T14:46:34.542Z,2632.00
2017-10-26T14:47:34.492Z,2684.00
2017-10-26T14:49:27.982Z,2876.00
2017-10-26T14:50:27.882Z,2912.00
2017-10-26T14:52:21.383Z,2876.00
2017-10-26T14:53:21.529Z,2804.00
2017-10-26T14:55:14.836Z,2584.00
2017-10-26T14:56:14.800Z,2436.00
2017-10-26T14:58:08.126Z,2288.00
2017-10-26T14:59:08.144Z,2208.00
2017-10-26T15:01:01.540Z,1968.00
2017-10-26T15:02:01.637Z,1836.00
2017-10-26T15:03:55.292Z,1656.00
2017-10-26T15:04:55.010Z,1500.00
2017-10-26T15:06:48.488Z,1352.00
2017-10-26T15:07:56.011Z,1368.00
2017-10-26T15:09:41.899Z,1324.00
2017-10-26T15:10:41.878Z,1272.00
2017-10-26T15:12:35.255Z,1284.00
2017-10-26T15:13:35.239Z,1268.00
2017-10-26T15:15:28.663Z,1228.00
2017-10-26T15:16:28.641Z,1232.00
2017-10-26T15:18:22.096Z,1268.00
2017-10-26T15:19:22.084Z,1280.00
2017-10-26T15:21:15.456Z,1096.00
2017-10-26T15:22:15.488Z,1144.00
2017-10-26T15:24:17.081Z,864.00
2017-10-26T15:25:09.092Z,1056.00
2017-10-26T15:27:02.360Z,964.00
2017-10-26T15:28:02.410Z,920.00
2017-10-26T15:29:55.769Z,884.00
2017-10-26T15:30:55.793Z,852.00
2017-10-26T15:32:49.113Z,820.00
2017-10-26T15:33:49.186Z,796.00
2017-10-26T15:35:50.162Z,740.00
2017-10-26T15:36:42.511Z,716.00
2017-10-26T15:38:35.937Z,664.00
2017-10-26T15:39:35.968Z,640.00
2017-10-26T15:41:29.375Z,584.00
2017-10-26T15:42:29.840Z,568.00
2017-10-26T15:44:22.865Z,528.00
2017-10-26T15:45:22.911Z,508.00
2017-10-26T15:47:16.296Z,500.00
2017-10-26T15:48:16.285Z,484.00
2017-10-26T15:50:09.713Z,408.00
2017-10-26T15:51:09.633Z,372.00
2017-10-26T15:53:03.074Z,336.00
2017-10-26T15:54:10.720Z,328.00
2017-10-26T15:55:56.540Z,320.00
2017-10-26T15:56:56.553Z,308.00
2017-10-26T15:58:57.633Z,280.00
2017-10-26T15:59:49.888Z,256.00
2017-10-26T16:01:44.326Z,244.00
2017-10-26T16:02:44.359Z,224.00
2017-10-26T16:04:45.373Z,180.00
2017-10-26T16:05:37.745Z,156.00
2017-10-26T16:07:31.225Z,132.00
2017-10-26T16:08:31.114Z,120.00
2017-10-26T16:10:25.688Z,96.00
2017-10-26T16:11:33.264Z,88.00
2017-10-26T16:13:19.035Z,68.00
2017-10-26T16:14:19.062Z,64.00
2017-10-26T16:16:12.381Z,48.00
2017-10-26T16:17:12.429Z,48.00
2017-10-26T16:19:05.833Z,36.00
2017-10-26T16:20:05.806Z,36.00
2017-10-26T16:22:00.210Z,28.00
2017-10-26T16:23:00.161Z,24.00
2017-10-26T16:24:53.544Z,16.00
2017-10-26T16:25:53.559Z,12.00
2017-10-26T16:27:46.963Z,12.00
2017-10-26T16:28:47.147Z,8.00
2017-10-26T16:30:40.500Z,4.00
2017-10-26T16:31:40.475Z,4.00
2017-10-26T16:33:33.950Z,4.00
2017-10-26T16:34:34.009Z,0.00
2017-10-26T16:36:27.256Z,0.00
2017-10-26T16:37:27.300Z,4.00
2017-10-26T16:39:20.618Z,0.00
2017-10-26T16:40:20.731Z,4.00
2017-10-26T16:42:14.142Z,0.00
2017-10-26T16:43:14.072Z,0.00
2017-10-26T16:45:07.484Z,0.00
2017-10-26T16:46:07.435Z,0.00
2017-10-26T16:48:00.853Z,0.00
2017-10-26T16:49:00.876Z,0.00
2017-10-26T16:50:54.277Z,0.00
2017-10-26T16:51:54.285Z,0.00
2017-10-26T16:53:47.775Z,0.00
2017-10-26T16:54:47.760Z,0.00
2017-10-26T16:56:42.176Z,0.00
2017-10-26T16:57:42.202Z,0.00
2017-10-26T16:59:35.584Z,0.00
2017-10-26T17:00:35.581Z,0.00
2017-10-26T17:02:28.982Z,0.00
2017-10-26T17:03:29.044Z,0.00
2017-10-26T17:05:23.433Z,0.00
2017-10-26T17:06:23.407Z,0.00
2017-10-26T17:08:17.017Z,0.00
2017-10-26T17:09:16.871Z,0.00
2017-10-26T17:11:18.396Z,0.00
2017-10-26T17:12:10.272Z,0.00
2017-10-26T17:14:04.753Z,0.00
2017-10-26T17:15:04.668Z,0.00
2017-10-26T17:16:59.154Z,0.00
2017-10-26T17:17:59.049Z,0.00
2017-10-26T17:19:52.469Z,0.00
2017-10-26T17:20:52.508Z,0.00
2017-10-26T17:22:45.897Z,0.00
2017-10-26T17:23:46.019Z,0.00
2017-10-26T17:25:40.373Z,0.00
2017-10-26T17:26:40.287Z,0.00
2017-10-26T17:28:33.842Z,0.00
2017-10-26T17:29:33.768Z,0.00
2017-10-26T17:31:28.404Z,0.00
2017-10-26T17:32:27.173Z,0.00
2017-10-26T17:34:20.626Z,0.00
2017-10-26T17:35:20.573Z,0.00
2017-10-26T17:37:15.126Z,0.00
2017-10-26T17:38:14.994Z,0.00
2017-10-26T17:40:08.413Z,0.00
2017-10-26T17:41:08.366Z,0.00
2017-10-26T17:43:03.830Z,0.00
2017-10-26T17:44:03.829Z,0.00
2017-10-26T17:45:57.232Z,0.00
2017-10-26T17:46:57.322Z,0.00
2017-10-26T17:48:51.614Z,0.00
2017-10-26T17:49:51.689Z,0.00
2017-10-26T17:51:46.144Z,0.00
2017-10-26T17:52:46.061Z,0.00
2017-10-26T17:54:39.554Z,0.00
2017-10-26T17:55:39.544Z,0.00
2017-10-26T17:57:33.219Z,0.00
2017-10-26T17:58:33.205Z,0.00
2017-10-26T18:00:26.537Z,0.00
2017-10-26T18:01:26.601Z,0.00
2017-10-26T18:03:20.940Z,0.00
2017-10-26T18:04:20.930Z,0.00
2017-10-26T18:06:14.405Z,0.00
2017-10-26T18:07:14.352Z,0.00
2017-10-26T18:09:08.826Z,0.00
2017-10-26T18:10:08.785Z,0.00